Terminal Aerodrome Forecast
Issued by NWS

Home | Current Version | Previous Version | Text Only | Print | Product List | Glossary On
Versions: 1 2 3 4 5 6 7 8 9 10 11 12 13 14 15 16 17 18 19 20 21 22 23 24
202
FTUS43 KILX 282339
TAFBMI
TAF
KBMI 282339Z 2900/2924 11010KT P6SM VCSH SCT012 OVC050
      TEMPO 2900/2903 BKN012
     FM290400 05010KT P6SM OVC010
     FM291100 06016G20KT 6SM -SHRA BR OVC008
     FM291500 06013G21KT 2SM -SHRA VCTS OVC004CB
     FM292000 07014G23KT 2SM TSRA BR OVC006CB=

USA.gov is the U.S. government's official web portal to all federal, state and local government web resources and services.